Terminal Aerodrome Forecast
Issued by NWS

Home | Current Version | Previous Version | Text Only | Print | Product List | Glossary On
Versions: 1 2 3 4 5 6 7 8 9 10 11 12 13 14 15 16 17 18 19
000
FTUS45 KSLC 261739
TAFBCE
TAF
KBCE 261739Z 2618/2718 03007KT P6SM SKC
     FM262000 31010KT P6SM FEW150
     FM270100 28006KT P6SM BKN150
     FM271400 14007KT P6SM BKN080=

USA.gov is the U.S. government's official web portal to all federal, state and local government web resources and services.